Time;durP1;ratioP1;P1;durP2;ratioP2;P2;SDS_P1;SDS_P2;PMS_P1;PMS_P2;Temp;Humidity;BMP_temperature;BMP_pressure;BME280_temperature;BME280_humidity;BME280_pressure;Samples;Min_cycle;Max_cycle;Signal;HPM_P1;HPM_P2
2022/04/18 00:02:21;;;;;;;53.40;28.48;;;;;;;10.51;42.36;100745.78;4868762;28;101112;-83
2022/04/18 00:04:47;;;;;;;51.08;27.33;;;;;;;10.59;41.83;100754.34;4884999;28;97139;-82
2022/04/18 00:07:13;;;;;;;52.22;26.88;;;;;;;10.43;42.11;100722.38;4867171;28;97137;-85
2022/04/18 00:09:38;;;;;;;50.95;26.60;;;;;;;10.15;41.88;100702.97;4899991;28;100083;-83
2022/04/18 00:12:05;;;;;;;49.45;26.40;;;;;;;10.40;42.76;100739.97;4868286;28;101473;-83
2022/04/18 00:14:30;;;;;;;49.65;25.90;;;;;;;10.30;42.96;100742.00;4884490;28;96655;-83
2022/04/18 00:16:56;;;;;;;49.25;26.52;;;;;;;10.10;43.23;100747.72;4868515;28;96958;-83
2022/04/18 00:19:22;;;;;;;48.55;26.85;;;;;;;9.98;43.01;100708.69;4899828;28;101719;-83
2022/04/18 00:21:48;;;;;;;52.25;26.35;;;;;;;10.15;42.92;100726.59;4883799;28;98368;-84
2022/04/18 00:24:17;;;;;;;49.95;26.50;;;;;;;10.22;43.29;100732.56;4868416;28;96861;-87
2022/04/18 00:26:43;;;;;;;46.83;24.33;;;;;;;10.05;43.03;100709.38;4868681;28;96898;-84
2022/04/18 00:29:10;;;;;;;46.45;25.63;;;;;;;10.14;42.92;100725.72;4883895;28;100041;-83
2022/04/18 00:31:36;;;;;;;43.83;24.63;;;;;;;10.13;43.12;100717.91;4867602;28;100176;-84
2022/04/18 00:34:02;;;;;;;47.95;24.88;;;;;;;10.05;43.45;100702.38;4868386;28;96630;-83
2022/04/18 00:36:28;;;;;;;54.75;26.35;;;;;;;10.17;43.66;100711.69;4899871;28;96947;-83
2022/04/18 00:38:54;;;;;;;51.35;26.30;;;;;;;10.20;44.06;100708.97;4884630;28;97548;-83
2022/04/18 00:41:19;;;;;;;50.45;25.60;;;;;;;9.85;44.02;100663.53;4883429;28;97629;-84
2022/04/18 00:43:47;;;;;;;48.15;25.00;;;;;;;10.11;44.31;100696.97;4868041;28;97120;-83
2022/04/18 00:46:14;;;;;;;48.35;26.35;;;;;;;10.10;44.70;100712.75;4865302;28;98390;-83
2022/04/18 00:48:40;;;;;;;49.00;26.23;;;;;;;9.96;44.56;100702.59;4881938;28;101378;-83
2022/04/18 00:51:07;;;;;;;46.00;25.95;;;;;;;9.68;44.93;100668.34;4884796;28;98100;-83
2022/04/18 00:53:35;;;;;;;48.58;26.90;;;;;;;9.94;44.95;100705.25;4883925;28;96723;-83
2022/04/18 00:56:00;;;;;;;47.40;25.45;;;;;;;9.88;45.27;100705.41;4883962;28;96894;-83
2022/04/18 00:58:26;;;;;;;46.63;25.98;;;;;;;9.90;45.34;100705.38;4882803;28;100674;-83
2022/04/18 01:00:53;;;;;;;51.92;26.65;;;;;;;9.91;45.44;100694.00;4867963;28;101235;-83
2022/04/18 01:03:20;;;;;;;43.85;24.02;;;;;;;9.68;46.21;100650.84;4868292;28;97188;-83
2022/04/18 01:05:48;;;;;;;43.00;24.63;;;;;;;9.90;46.03;100693.13;4868312;28;96995;-83
2022/04/18 01:08:15;;;;;;;43.58;23.90;;;;;;;9.85;45.82;100668.78;4883470;28;101043;-83
2022/04/18 01:10:41;;;;;;;49.78;25.70;;;;;;;9.49;45.98;100610.28;4867730;28;101341;-83
2022/04/18 01:13:07;;;;;;;48.80;25.42;;;;;;;9.87;45.65;100687.97;4867898;28;96771;-84
2022/04/18 01:15:45;;;;;;;46.03;24.58;;;;;;;9.89;46.23;100680.94;4871564;28;96804;-83
2022/04/18 01:18:40;;;;;;;38.53;22.08;;;;;;;9.89;45.40;100685.28;4881810;28;97905;-83
2022/04/18 01:21:28;;;;;;;43.13;24.00;;;;;;;9.88;44.86;100659.97;4873366;28;101889;-85
2022/04/18 01:29:55;;;;;;;38.88;20.92;;;;;;;9.95;45.26;100666.81;4902179;28;98549;-83
2022/04/18 01:32:22;;;;;;;37.53;20.92;;;;;;;9.93;45.70;100663.34;4867237;28;101598;-86
2022/04/18 01:34:47;;;;;;;38.78;20.55;;;;;;;9.85;45.68;100647.81;4867958;28;96640;-83
2022/04/18 01:37:13;;;;;;;35.72;19.58;;;;;;;9.87;45.62;100653.03;4867681;28;96888;-83
2022/04/18 01:39:39;;;;;;;40.17;20.90;;;;;;;9.94;45.59;100665.06;4866995;28;102332;-83
2022/04/18 01:42:05;;;;;;;34.85;20.02;;;;;;;9.90;46.07;100663.44;4867095;28;101759;-83
2022/04/18 01:44:30;;;;;;;39.38;20.75;;;;;;;9.87;46.12;100664.38;4867787;28;96579;-84
2022/04/18 01:46:56;;;;;;;36.13;18.98;;;;;;;9.85;46.22;100644.31;4867325;28;97686;-83
2022/04/18 01:49:23;;;;;;;38.45;19.83;;;;;;;9.92;46.17;100652.00;4867022;28;101363;-85
2022/04/18 01:51:49;;;;;;;29.45;17.48;;;;;;;9.92;46.56;100641.53;4882789;28;101122;-82
2022/04/18 01:54:15;;;;;;;35.58;17.40;;;;;;;9.83;46.79;100625.16;4866896;28;96705;-83
2022/04/18 01:56:41;;;;;;;34.55;17.33;;;;;;;9.71;46.42;100614.06;4898653;28;97598;-84
2022/04/18 01:59:07;;;;;;;33.47;18.15;;;;;;;9.84;46.95;100643.47;4867265;28;101917;-83
2022/04/18 02:01:33;;;;;;;33.15;16.95;;;;;;;9.87;46.63;100624.19;4882610;28;101388;-83
2022/04/18 02:03:59;;;;;;;31.77;17.38;;;;;;;9.87;47.20;100629.44;4867849;28;96909;-83
2022/04/18 02:06:24;;;;;;;30.25;17.02;;;;;;;9.68;47.38;100608.06;4867796;28;96873;-84
2022/04/18 02:08:51;;;;;;;31.17;16.40;;;;;;;9.85;47.38;100626.81;4867070;28;99891;-83
2022/04/18 02:11:20;;;;;;;32.80;16.73;;;;;;;9.75;48.05;100628.84;4867811;28;101438;-83
2022/04/18 02:13:46;;;;;;;40.38;17.48;;;;;;;9.71;48.20;100615.84;4866563;28;96566;-83
2022/04/18 02:16:13;;;;;;;31.02;17.48;;;;;;;9.72;48.18;100615.81;4867315;28;96837;-83
2022/04/18 02:18:41;;;;;;;31.45;17.05;;;;;;;9.77;48.31;100620.91;4898150;28;101763;-83
2022/04/18 02:21:11;;;;;;;31.85;17.20;;;;;;;9.42;48.52;100570.25;4882750;28;101355;-84
2022/04/18 02:23:38;;;;;;;29.42;16.52;;;;;;;9.71;48.57;100618.47;4867419;28;96765;-83
2022/04/18 02:26:04;;;;;;;29.42;15.73;;;;;;;9.67;48.67;100615.06;4867981;28;96959;-83
2022/04/18 02:28:31;;;;;;;31.48;16.27;;;;;;;9.66;48.67;100604.63;4884332;28;101226;-82
2022/04/18 02:31:00;;;;;;;29.83;16.55;;;;;;;9.65;48.73;100610.75;4867425;28;101088;-83
2022/04/18 02:33:26;;;;;;;26.02;15.75;;;;;;;9.55;49.34;100604.03;4882885;28;96754;-85
2022/04/18 02:35:51;;;;;;;31.05;15.80;;;;;;;9.47;49.07;100578.88;4867088;28;96918;-83
2022/04/18 02:38:18;;;;;;;29.27;16.27;;;;;;;9.55;48.99;100598.81;4866296;28;101196;-83
2022/04/18 02:40:46;;;;;;;32.13;16.60;;;;;;;9.20;49.07;100540.28;4866999;28;101985;-82
2022/04/18 02:43:12;;;;;;;29.88;16.33;;;;;;;9.61;48.59;100596.03;4865246;28;100469;-84
2022/04/18 02:45:40;;;;;;;27.67;16.20;;;;;;;9.63;48.39;100581.97;4867095;28;97158;-83
2022/04/18 02:48:32;;;;;;;30.63;17.10;;;;;;;9.65;48.79;100582.78;4898241;28;97567;-84
2022/04/18 02:50:59;;;;;;;33.05;17.52;;;;;;;9.65;48.62;100584.53;4867090;28;101052;-82
2022/04/18 02:53:28;;;;;;;30.90;15.85;;;;;;;9.42;49.10;100548.44;4882747;28;97048;-84
2022/04/18 02:55:58;;;;;;;32.30;17.30;;;;;;;9.56;49.03;100583.00;4866904;28;96900;-82
2022/04/18 02:58:24;;;;;;;27.02;15.38;;;;;;;9.29;48.94;100538.28;4881917;28;100894;-83
2022/04/18 03:00:51;;;;;;;33.65;16.67;;;;;;;9.42;49.26;100562.41;4881786;28;101843;-83
2022/04/18 03:03:16;;;;;;;33.53;17.85;;;;;;;9.53;49.24;100583.94;4881781;28;96778;-83
2022/04/18 03:05:43;;;;;;;33.20;16.88;;;;;;;9.56;49.11;100577.78;4901262;28;97108;-83
2022/04/18 03:08:10;;;;;;;28.90;17.08;;;;;;;9.58;49.35;100575.13;4869653;28;101491;-84
2022/04/18 03:13:26;;;;;;;29.60;16.58;;;;;;;9.60;49.30;100576.81;4901418;28;97255;-83
2022/04/18 03:15:52;;;;;;;32.25;18.33;;;;;;;9.34;49.90;100553.91;4869832;28;97001;-83
2022/04/18 03:18:18;;;;;;;34.00;17.10;;;;;;;9.43;49.69;100572.00;4885069;28;101510;-83
2022/04/18 03:20:44;;;;;;;30.67;16.50;;;;;;;9.28;49.46;100560.16;4885261;28;101518;-83
2022/04/18 03:23:11;;;;;;;30.27;16.77;;;;;;;9.44;49.86;100576.34;4869832;28;96560;-84
2022/04/18 03:26:08;;;;;;;30.23;16.92;;;;;;;9.33;49.89;100556.53;4888472;28;96972;-83
2022/04/18 03:29:00;;;;;;;29.45;15.52;;;;;;;9.34;49.96;100571.34;4888847;28;99509;-83
2022/04/18 03:31:26;;;;;;;29.25;16.52;;;;;;;9.15;51.03;100565.72;4869342;28;101875;-84
2022/04/18 03:33:52;;;;;;;30.33;16.38;;;;;;;8.94;50.52;100525.19;4885144;28;96751;-83
2022/04/18 03:41:46;;;;;;;31.48;17.02;;;;;;;9.14;50.68;100561.38;4885847;28;100400;-83
2022/04/18 03:44:14;;;;;;;32.70;16.35;;;;;;;9.13;50.16;100565.75;4870250;28;96573;-83
2022/04/18 03:46:40;;;;;;;32.50;16.77;;;;;;;9.10;50.58;100554.47;4869548;28;96913;-84
2022/04/18 03:49:06;;;;;;;29.23;15.75;;;;;;;9.17;49.57;100562.16;4868984;28;101536;-83
2022/04/18 03:51:34;;;;;;;27.85;14.93;;;;;;;9.12;49.33;100552.69;4884640;28;100768;-87
2022/04/18 03:53:59;;;;;;;30.42;15.88;;;;;;;9.19;48.73;100564.72;4868842;28;97171;-83
2022/04/18 03:56:29;;;;;;;27.67;15.70;;;;;;;9.18;48.38;100557.78;4885476;28;97007;-84
2022/04/18 03:59:23;;;;;;;27.90;14.57;;;;;;;9.18;48.23;100560.41;4883625;28;97591;-83
2022/04/18 04:01:59;;;;;;;27.30;14.55;;;;;;;9.23;47.85;100574.25;4885575;28;101763;-84
2022/04/18 04:04:27;;;;;;;24.35;13.63;;;;;;;9.16;47.52;100552.59;4885276;28;96617;-83
2022/04/18 04:06:55;;;;;;;22.90;12.35;;;;;;;9.06;47.35;100543.22;4869122;28;97257;-83
2022/04/18 04:09:21;;;;;;;21.52;12.93;;;;;;;9.12;47.61;100561.41;4869055;28;101356;-83
2022/04/18 04:11:47;;;;;;;19.80;12.35;;;;;;;8.97;47.36;100531.22;4884539;28;101490;-83
2022/04/18 04:14:13;;;;;;;22.48;12.50;;;;;;;9.07;46.91;100552.78;4884995;28;96781;-84
2022/04/18 04:16:39;;;;;;;28.83;12.23;;;;;;;9.04;46.70;100558.97;4883732;28;97095;-83
2022/04/18 04:19:06;;;;;;;33.55;16.80;;;;;;;8.90;47.03;100557.56;4868419;28;101743;-83
2022/04/18 04:21:33;;;;;;;30.58;17.00;;;;;;;8.95;47.40;100559.19;4884216;28;101157;-83
2022/04/18 04:24:00;;;;;;;30.17;17.13;;;;;;;8.68;47.28;100513.59;4884726;28;96777;-83
2022/04/18 04:26:34;;;;;;;28.42;12.77;;;;;;;8.92;47.42;100564.50;4871057;28;96937;-84
2022/04/18 04:29:00;;;;;;;23.67;11.43;;;;;;;8.84;46.79;100551.59;4883882;28;101392;-83
2022/04/18 04:31:48;;;;;;;18.52;9.25;;;;;;;8.96;45.88;100566.16;4882043;28;97862;-83
2022/04/18 04:34:14;;;;;;;20.67;11.07;;;;;;;9.02;45.88;100568.63;4884654;28;96697;-84
2022/04/18 04:36:50;;;;;;;18.00;9.48;;;;;;;8.86;45.61;100548.94;4871118;28;96882;-84
2022/04/18 04:39:20;;;;;;;16.60;9.25;;;;;;;8.96;45.35;100560.03;4869660;28;101305;-83
2022/04/18 04:41:46;;;;;;;16.00;8.50;;;;;;;9.26;44.03;100569.78;4867489;28;101735;-83
2022/04/18 04:44:12;;;;;;;12.88;7.28;;;;;;;9.29;43.28;100547.91;4864406;28;96954;-83
2022/04/18 04:46:59;;;;;;;11.73;7.25;;;;;;;9.39;43.40;100562.47;4869762;28;97190;-83
2022/04/18 04:49:27;;;;;;;15.05;6.97;;;;;;;9.53;42.99;100567.38;4850248;28;100780;-82
2022/04/18 04:52:25;;;;;;;12.95;7.03;;;;;;;9.47;43.22;100570.16;4876840;28;99290;-83
2022/04/18 04:54:52;;;;;;;15.10;7.30;;;;;;;9.53;42.67;100542.03;4865336;28;96680;-83
2022/04/18 04:57:24;;;;;;;;;;;;;;;9.85;41.55;100577.00;4851308;28;96928;-83
2022/04/18 05:00:16;;;;;;;14.77;7.25;;;;;;;9.85;41.69;100547.31;4881494;28;97459;-83
2022/04/18 05:03:03;;;;;;;14.63;6.57;;;;;;;10.08;41.44;100567.66;4880403;28;101427;-83
2022/04/18 05:05:29;;;;;;;13.05;7.05;;;;;;;10.06;40.95;100546.69;4880901;28;96998;-83
2022/04/18 05:07:59;;;;;;;10.85;6.00;;;;;;;10.14;41.19;100549.97;4849845;28;96884;-83
2022/04/18 05:10:28;;;;;;;14.00;7.65;;;;;;;10.24;41.40;100568.06;4879990;28;102071;-83
2022/04/18 05:12:54;;;;;;;12.63;6.50;;;;;;;10.07;41.39;100503.84;4848499;28;100566;-83
2022/04/18 05:15:20;;;;;;;11.80;6.53;;;;;;;10.39;41.31;100538.81;4849429;28;96615;-85
2022/04/18 05:18:17;;;;;;;12.43;6.57;;;;;;;10.58;41.13;100558.34;4864195;28;97030;-83
2022/04/18 05:20:46;;;;;;;13.80;6.93;;;;;;;10.64;41.40;100560.75;4895605;28;101259;-84
2022/04/18 05:23:15;;;;;;;14.38;6.95;;;;;;;10.92;41.11;100559.06;4864328;28;99203;-83
2022/04/18 05:25:40;;;;;;;14.57;7.57;;;;;;;11.21;40.18;100563.38;4864795;28;96668;-83
2022/04/18 05:28:06;;;;;;;15.43;8.00;;;;;;;11.28;39.46;100557.84;4879178;28;96871;-83
2022/04/18 05:30:39;;;;;;;16.90;8.07;;;;;;;11.51;39.19;100569.38;4850253;28;100556;-83
2022/04/18 05:33:06;;;;;;;12.95;7.40;;;;;;;11.10;39.20;100498.91;4879536;28;101882;-83
2022/04/18 05:35:42;;;;;;;13.10;7.57;;;;;;;11.62;39.25;100554.09;4865507;28;96805;-84
2022/04/18 05:38:08;;;;;;;12.77;6.95;;;;;;;11.80;38.79;100557.84;4864068;28;96926;-82
2022/04/18 05:40:43;;;;;;;12.73;7.40;;;;;;;12.15;38.24;100563.66;4850921;28;101879;-85
2022/04/18 05:43:09;;;;;;;13.32;7.50;;;;;;;12.29;37.93;100558.75;4879512;28;101368;-83
2022/04/18 05:45:39;;;;;;;13.63;6.78;;;;;;;12.26;37.54;100539.59;4866942;28;96795;-83
2022/04/18 05:48:11;;;;;;;13.02;6.95;;;;;;;12.54;37.70;100552.56;4884207;28;96742;-83
2022/04/18 05:50:45;;;;;;;11.65;7.28;;;;;;;12.75;36.83;100542.97;4883881;28;101835;-83
2022/04/18 05:53:17;;;;;;;17.15;7.40;;;;;;;13.04;36.99;100554.97;4869078;28;101439;-85
2022/04/18 05:56:06;;;;;;;13.82;7.55;;;;;;;13.19;37.13;100559.63;4885455;28;96773;-83
2022/04/18 05:58:55;;;;;;;10.95;6.95;;;;;;;13.55;37.04;100559.88;4879431;28;96765;-83
2022/04/18 06:01:39;;;;;;;13.30;7.25;;;;;;;13.76;37.04;100559.91;4901611;28;96700;-83
2022/04/18 06:04:10;;;;;;;19.20;8.70;;;;;;;13.91;36.25;100559.22;4883974;28;101895;-83
2022/04/18 06:06:38;;;;;;;14.15;8.32;;;;;;;14.18;36.20;100557.13;4867608;28;96699;-83
2022/04/18 06:09:03;;;;;;;17.15;9.23;;;;;;;14.31;35.69;100538.97;4883887;28;97536;-82
2022/04/18 06:11:29;;;;;;;17.52;8.30;;;;;;;14.38;35.31;100531.59;4868482;28;101549;-83
2022/04/18 06:14:11;;;;;;;13.85;7.57;;;;;;;14.98;34.60;100556.09;4885006;28;101020;-83
2022/04/18 06:16:42;;;;;;;16.15;7.70;;;;;;;15.23;34.06;100552.22;4868360;28;96949;-83
2022/04/18 06:19:08;;;;;;;14.98;7.57;;;;;;;15.32;33.45;100565.84;4867738;28;97018;-82
2022/04/18 06:21:33;;;;;;;13.20;7.55;;;;;;;15.39;33.58;100532.03;4867209;28;101296;-83
2022/04/18 06:24:00;;;;;;;14.38;7.32;;;;;;;15.75;33.13;100557.56;4870883;28;101130;-82
2022/04/18 06:26:56;;;;;;;12.35;6.88;;;;;;;15.91;33.08;100557.59;4890314;28;96974;-83
2022/04/18 06:29:22;;;;;;;13.80;7.50;;;;;;;16.00;33.32;100544.75;4905477;28;96934;-82
2022/04/18 06:31:53;;;;;;;12.63;6.80;;;;;;;16.14;32.55;100532.56;4876668;28;101850;-84
2022/04/18 06:34:20;;;;;;;10.98;6.57;;;;;;;16.66;32.19;100553.53;4867262;28;100316;-83
2022/04/18 06:36:47;;;;;;;11.75;6.68;;;;;;;16.89;31.89;100565.53;4881820;28;96712;-86
2022/04/18 06:39:36;;;;;;;9.68;6.20;;;;;;;17.13;31.59;100558.88;4888377;28;96865;-85
2022/04/18 06:42:12;;;;;;;11.13;5.95;;;;;;;17.28;30.84;100565.09;4898081;28;102134;-82
2022/04/18 06:44:48;;;;;;;9.60;6.13;;;;;;;17.58;31.02;100559.75;4899682;28;101511;-84
2022/04/18 06:47:14;;;;;;;8.98;6.03;;;;;;;17.95;30.99;100556.72;4882428;28;96733;-83
2022/04/18 06:50:12;;;;;;;11.27;5.75;;;;;;;18.33;30.02;100549.06;4878932;28;97046;-83
2022/04/18 06:52:56;;;;;;;11.13;6.18;;;;;;;18.58;30.09;100550.16;4884805;28;97154;-83
2022/04/18 06:58:36;;;;;;;10.35;6.10;;;;;;;19.01;29.40;100556.22;4886404;28;97198;-84
2022/04/18 07:01:03;;;;;;;12.50;6.30;;;;;;;19.03;28.77;100545.50;4879553;28;97334;-84
2022/04/18 07:03:29;;;;;;;10.95;6.47;;;;;;;19.42;28.29;100549.97;4875635;28;101144;-84
2022/04/18 07:05:55;;;;;;;12.85;7.15;;;;;;;19.61;27.88;100550.44;4860865;28;101825;-84
2022/04/18 07:08:22;;;;;;;10.45;7.03;;;;;;;19.77;27.86;100522.78;4873536;28;96775;-84
2022/04/18 07:10:50;;;;;;;9.65;7.60;;;;;;;20.15;27.17;100513.91;4873886;28;97203;-86
2022/04/18 07:13:17;;;;;;;12.90;8.32;;;;;;;20.47;26.92;100527.59;4856884;28;101500;-84
2022/04/18 07:15:45;;;;;;;14.43;7.95;;;;;;;20.83;26.59;100545.47;4877211;28;101551;-83
2022/04/18 07:18:14;;;;;;;10.50;7.18;;;;;;;21.11;25.78;100535.41;4875075;28;96893;-83
2022/04/18 07:20:41;;;;;;;11.70;7.55;;;;;;;21.16;24.96;100542.09;4858389;28;98288;-83
2022/04/18 07:23:07;;;;;;;11.05;6.88;;;;;;;21.20;24.73;100543.56;4867879;28;101550;-85
2022/04/18 07:25:42;;;;;;;11.63;7.65;;;;;;;21.37;24.90;100545.00;4877346;28;100202;-82
2022/04/18 07:28:27;;;;;;;12.02;7.28;;;;;;;21.74;25.03;100552.03;4876831;28;97098;-83
2022/04/18 07:30:53;;;;;;;12.25;8.07;;;;;;;21.99;24.18;100527.78;4861030;28;96994;-85
2022/04/18 07:33:19;;;;;;;11.63;8.20;;;;;;;22.24;23.58;100541.91;4879980;28;101183;-82
2022/04/18 07:35:44;;;;;;;11.73;7.68;;;;;;;22.48;24.36;100547.09;4872954;28;101437;-80
2022/04/18 07:41:04;;;;;;;11.52;7.15;;;;;;;22.88;24.09;100535.84;4890235;28;96945;-82
2022/04/18 07:43:37;;;;;;;11.65;8.13;;;;;;;22.85;23.27;100495.97;4903443;28;100574;-85
2022/04/18 07:46:06;;;;;;;9.77;7.53;;;;;;;23.41;23.33;100543.94;4907778;28;101632;-84
2022/04/18 07:48:33;;;;;;;13.07;7.60;;;;;;;23.75;23.67;100544.63;4877378;28;97202;-84
2022/04/18 07:53:46;;;;;;;10.85;7.43;;;;;;;24.24;21.80;100547.56;4888111;28;96850;-83
2022/04/18 07:56:12;;;;;;;11.35;7.88;;;;;;;24.33;21.30;100544.91;4891797;28;97427;-83
2022/04/18 07:58:38;;;;;;;11.27;8.63;;;;;;;24.40;20.72;100529.13;4893885;28;96830;-84
2022/04/18 08:01:10;;;;;;;8.93;6.80;;;;;;;24.55;20.81;100532.28;4876897;28;96814;-77
2022/04/18 08:03:35;;;;;;;11.43;8.43;;;;;;;24.72;20.79;100514.69;4865915;28;101214;-83
2022/04/18 08:06:02;;;;;;;11.70;7.95;;;;;;;24.85;21.05;100521.50;4883483;28;97904;-85
2022/04/18 08:08:47;;;;;;;10.48;7.68;;;;;;;25.06;20.86;100515.16;4875111;28;97155;-81
2022/04/18 08:11:15;;;;;;;11.85;8.55;;;;;;;25.25;20.75;100533.16;4866715;28;97316;-84
2022/04/18 08:13:45;;;;;;;9.80;7.97;;;;;;;25.69;20.71;100531.66;4895808;28;97993;-73
2022/04/18 08:16:31;;;;;;;10.43;7.78;;;;;;;25.90;19.83;100525.28;4890147;28;97447;-73
2022/04/18 08:19:03;;;;;;;10.77;7.53;;;;;;;25.82;19.69;100527.81;4881973;28;97241;-80
2022/04/18 08:21:28;;;;;;;10.13;8.30;;;;;;;26.15;19.25;100527.31;4851948;28;97015;-78
2022/04/18 08:23:54;;;;;;;9.23;7.53;;;;;;;26.31;18.66;100518.59;4892191;28;97653;-83
2022/04/18 08:26:26;;;;;;;8.93;7.25;;;;;;;26.30;19.32;100521.44;4892168;28;98045;-79
2022/04/18 08:28:57;;;;;;;10.90;7.60;;;;;;;26.05;19.09;100515.72;4864054;28;97370;-77
2022/04/18 08:31:24;;;;;;;8.50;6.90;;;;;;;26.25;19.01;100523.72;4883015;28;96966;-77
2022/04/18 08:33:57;;;;;;;10.00;7.28;;;;;;;26.09;18.76;100522.53;4891298;28;101756;-76
2022/04/18 08:36:24;;;;;;;8.60;6.28;;;;;;;26.38;19.10;100517.00;4905682;28;101498;-76
2022/04/18 08:38:49;;;;;;;9.38;6.65;;;;;;;26.35;19.42;100519.97;4910865;28;96883;-76
2022/04/18 08:41:33;;;;;;;7.72;6.20;;;;;;;26.79;18.74;100519.31;4899697;28;96851;-80
2022/04/18 08:43:59;;;;;;;8.00;5.32;;;;;;;26.86;18.38;100515.03;4886317;28;101175;-80
2022/04/18 08:46:25;;;;;;;8.90;5.60;;;;;;;26.79;18.85;100513.94;4875323;28;101614;-81
2022/04/18 08:54:26;;;;;;;6.60;4.90;;;;;;;26.49;19.26;100507.03;4897688;28;99693;-79
2022/04/18 08:56:53;;;;;;;7.28;4.80;;;;;;;26.68;18.98;100481.88;4865462;28;101476;-80
2022/04/18 08:59:20;;;;;;;8.40;5.35;;;;;;;26.71;18.84;100492.34;4881313;28;97460;-81
2022/04/18 09:01:52;;;;;;;5.18;3.38;;;;;;;26.61;18.39;100479.78;4882006;28;97276;-83
2022/04/18 09:04:32;;;;;;;5.82;3.85;;;;;;;25.39;18.83;100489.69;4884801;28;101976;-81
2022/04/18 09:07:08;;;;;;;4.78;3.38;;;;;;;25.53;19.35;100494.63;4893641;28;101347;-83
2022/04/18 09:09:35;;;;;;;7.05;3.92;;;;;;;25.61;19.49;100463.50;4876311;28;96874;-82
2022/04/18 09:12:23;;;;;;;5.22;4.60;;;;;;;26.18;19.40;100486.66;4887088;28;97059;-83
2022/04/18 09:15:09;;;;;;;5.57;3.50;;;;;;;26.08;18.54;100460.81;4852740;28;99775;-81
2022/04/18 09:17:37;;;;;;;5.32;3.30;;;;;;;25.57;18.86;100475.53;4888159;28;101358;-81
2022/04/18 09:20:26;;;;;;;4.10;2.95;;;;;;;25.71;19.15;100465.19;4891455;28;97419;-81
2022/04/18 09:22:55;;;;;;;4.40;2.92;;;;;;;25.93;18.28;100460.44;4882513;28;97071;-84
2022/04/18 09:25:22;;;;;;;5.80;2.72;;;;;;;26.44;18.71;100475.16;4862869;28;101162;-81
2022/04/18 09:27:55;;;;;;;2.22;1.73;;;;;;;26.30;17.17;100441.56;4864864;28;101521;-82
2022/04/18 09:30:24;;;;;;;2.08;1.70;;;;;;;26.46;17.34;100458.88;4880056;28;97116;-82
2022/04/18 09:33:07;;;;;;;3.53;1.88;;;;;;;26.20;16.81;100467.66;4879934;28;97244;-81
2022/04/18 09:35:38;;;;;;;4.57;1.50;;;;;;;25.52;17.24;100454.47;4883028;28;101651;-80
2022/04/18 09:38:07;;;;;;;2.53;1.73;;;;;;;25.48;17.70;100464.69;4881975;28;101797;-81
2022/04/18 09:40:55;;;;;;;3.28;2.00;;;;;;;24.84;17.10;100441.09;4887910;28;96899;-81
2022/04/18 09:43:36;;;;;;;2.72;2.17;;;;;;;25.16;18.29;100456.09;4862361;28;97042;-80
2022/04/18 09:46:02;;;;;;;3.38;2.40;;;;;;;25.11;18.28;100431.50;4881510;28;98481;-81
2022/04/18 09:48:31;;;;;;;7.82;4.10;;;;;;;24.33;18.53;100463.59;4879846;28;101014;-81
2022/04/18 09:51:00;;;;;;;6.90;3.50;;;;;;;22.94;19.62;100466.59;4898078;28;97284;-84
2022/04/18 09:53:32;;;;;;;5.78;3.13;;;;;;;22.19;20.17;100451.34;4851848;28;96901;-81
2022/04/18 09:55:58;;;;;;;4.07;2.92;;;;;;;22.00;20.69;100451.97;4891768;28;102068;-83
2022/04/18 09:58:25;;;;;;;4.68;2.65;;;;;;;21.73;20.54;100449.66;4897481;28;101214;-81
2022/04/18 10:00:51;;;;;;;4.72;2.72;;;;;;;21.18;21.30;100440.56;4865995;28;97160;-82
2022/04/18 10:03:18;;;;;;;4.80;2.35;;;;;;;21.52;21.29;100425.47;4865044;28;97458;-81
2022/04/18 10:05:45;;;;;;;4.78;2.55;;;;;;;21.85;21.24;100426.47;4875294;28;101754;-82
2022/04/18 10:08:11;;;;;;;6.25;2.28;;;;;;;21.58;20.63;100398.28;4861530;28;101182;-83
2022/04/18 10:10:40;;;;;;;5.60;3.15;;;;;;;21.59;20.10;100433.88;4878780;28;97141;-82
2022/04/18 10:13:07;;;;;;;4.55;3.03;;;;;;;21.37;20.52;100424.00;4863769;28;97333;-78
2022/04/18 10:15:34;;;;;;;4.05;2.70;;;;;;;21.25;20.51;100431.09;4893820;28;98006;-83
2022/04/18 10:18:05;;;;;;;3.72;2.95;;;;;;;20.85;20.88;100418.13;4881188;28;99989;-81
2022/04/18 10:20:55;;;;;;;3.63;2.70;;;;;;;20.90;20.96;100449.81;4883284;28;96708;-80
2022/04/18 10:23:27;;;;;;;4.28;3.00;;;;;;;20.62;21.23;100433.19;4897813;28;96845;-79
2022/04/18 10:26:23;;;;;;;4.50;2.85;;;;;;;20.47;21.38;100436.94;4915599;28;98567;-81
2022/04/18 10:28:51;;;;;;;3.67;2.92;;;;;;;20.10;21.51;100427.19;4915071;28;97931;-80
2022/04/18 10:31:24;;;;;;;4.30;2.45;;;;;;;20.07;22.10;100407.88;4882353;28;96720;-80
2022/04/18 10:33:50;;;;;;;3.95;2.15;;;;;;;20.32;22.60;100425.59;4882104;28;96889;-79
2022/04/18 10:36:28;;;;;;;3.85;2.47;;;;;;;20.37;22.75;100425.28;4881426;28;101333;-79
2022/04/18 10:39:01;;;;;;;5.63;2.42;;;;;;;20.42;22.02;100415.97;4897844;28;98476;-79
2022/04/18 10:41:40;;;;;;;4.13;2.05;;;;;;;20.26;21.90;100410.91;4881090;28;96828;-79
2022/04/18 10:44:08;;;;;;;2.60;1.92;;;;;;;20.31;22.35;100424.75;4881618;28;96994;-78
2022/04/18 10:46:37;;;;;;;3.55;2.22;;;;;;;20.08;22.01;100414.91;4882223;28;101675;-78
2022/04/18 10:49:05;;;;;;;3.40;2.45;;;;;;;19.68;22.28;100397.31;4896853;28;98097;-77
2022/04/18 10:51:38;;;;;;;4.32;2.50;;;;;;;19.78;22.97;100413.50;4866389;28;97913;-79
2022/04/18 10:54:06;;;;;;;3.50;2.47;;;;;;;19.50;22.89;100409.22;4897926;28;96810;-79
2022/04/18 10:56:50;;;;;;;3.80;2.75;;;;;;;19.19;22.66;100416.66;4882072;28;101452;-79
2022/04/18 10:59:19;;;;;;;4.13;3.13;;;;;;;19.18;22.40;100412.28;4881725;28;97869;-79
2022/04/18 11:01:45;;;;;;;6.00;2.72;;;;;;;18.82;22.67;100394.38;4882346;28;96647;-79
2022/04/18 11:04:12;;;;;;;4.95;2.42;;;;;;;18.94;23.41;100392.69;4865525;28;96904;-79
2022/04/18 11:06:38;;;;;;;6.68;2.58;;;;;;;19.10;23.57;100403.13;4881408;28;101395;-79
2022/04/18 11:09:08;;;;;;;2.97;2.15;;;;;;;19.09;23.50;100388.13;4896690;28;101246;-79
2022/04/18 11:11:45;;;;;;;3.33;2.40;;;;;;;19.25;23.36;100409.22;4882166;28;96667;-79
2022/04/18 11:14:21;;;;;;;5.95;2.78;;;;;;;19.21;22.93;100406.75;4881335;28;96945;-79
2022/04/18 11:16:54;;;;;;;3.67;2.50;;;;;;;18.83;22.94;100385.44;4897695;28;97813;-79
2022/04/18 11:19:26;;;;;;;3.83;2.70;;;;;;;18.82;22.82;100402.34;4881221;28;97922;-79
2022/04/18 11:21:55;;;;;;;4.05;2.30;;;;;;;18.91;23.33;100398.22;4882284;28;97179;-78
2022/04/18 11:24:39;;;;;;;3.60;2.50;;;;;;;18.71;23.68;100402.19;4913650;28;96953;-78
2022/04/18 11:27:11;;;;;;;5.10;2.53;;;;;;;18.75;24.21;100396.56;4898866;28;101971;-79
2022/04/18 11:29:38;;;;;;;3.90;2.60;;;;;;;18.78;24.49;100377.75;4884451;28;101596;-79
2022/04/18 11:32:05;;;;;;;4.22;2.60;;;;;;;18.62;23.96;100386.84;4884694;28;96825;-84
2022/04/18 11:34:32;;;;;;;4.40;2.53;;;;;;;18.72;24.33;100394.09;4883355;28;96975;-80
2022/04/18 11:36:59;;;;;;;4.88;3.15;;;;;;;18.75;23.46;100380.63;4864363;28;101863;-81
2022/04/18 11:39:40;;;;;;;3.80;2.33;;;;;;;18.51;23.50;100376.91;4899028;28;101497;-83
2022/04/18 11:42:06;;;;;;;4.72;2.88;;;;;;;18.48;23.42;100375.31;4851261;28;97920;-81
2022/04/18 11:44:41;;;;;;;4.80;3.20;;;;;;;18.43;23.32;100374.75;4853543;28;96915;-79
2022/04/18 11:47:15;;;;;;;4.65;2.65;;;;;;;18.39;23.60;100380.41;4842764;28;101206;-80
2022/04/18 11:49:42;;;;;;;5.13;2.60;;;;;;;18.00;23.21;100340.34;4876815;28;98360;-77
2022/04/18 11:52:23;;;;;;;3.47;2.20;;;;;;;18.33;24.32;100371.03;4843288;28;97188;-82
2022/04/18 11:55:02;;;;;;;;;;;;;;;18.29;24.62;100367.69;4860491;28;97147;-80
2022/04/18 11:57:30;;;;;;;3.92;2.67;;;;;;;18.37;24.07;100347.75;4874282;28;97748;-80
2022/04/18 11:59:56;;;;;;;4.90;2.50;;;;;;;18.29;23.94;100341.13;4875756;28;98064;-79
2022/04/18 12:08:00;;;;;;;4.25;2.75;;;;;;;18.18;25.61;100350.75;4853580;28;102239;-79